Overview Statistics Trail Chart Weather Telemetry Raw packets
 

This is the latest recevied weather packets stored in our database for station/object KE8WMS. If no packets are shown the sender has not sent any weather packets the latest 10 day(s).

<< 100 101 102 103 104 105 106 >>
Time Temp. Humidity Pressure Rain* Wind** Luminosity Snow
1777066950 17.22° C 96% 1002 hPa 0 mm - 304 W/m² -
1777066644 17.22° C 97% 1001.9 hPa 0 mm - 153 W/m² -
1777066341 17.22° C 98% 1002.2 hPa 0 mm - 371 W/m² -
1777066041 16.67° C 99% 1002.3 hPa 0 mm - 400 W/m² -
1777065735 15.56° C 99% 1002.3 hPa 0 mm - 372 W/m² -
1777065431 15.56° C 99% 1002.4 hPa 0 mm - 295 W/m² -
1777065126 15° C 99% 1002.5 hPa 0 mm - 213 W/m² -
1777064824 15° C 99% 1002.7 hPa 0 mm - 153 W/m² -
1777064520 14.44° C 99% 1002.4 hPa 0 mm - 106 W/m² -
1777064216 13.89° C 99% 1002.5 hPa 1.78 mm - 126 W/m² -
1777063912 13.89° C 98% 1002.6 hPa 1.78 mm - 120 W/m² -
1777063612 13.33° C 98% 1003 hPa 3.05 mm - 116 W/m² -
1777063307 13.33° C 98% 1003.5 hPa 6.1 mm - 121 W/m² -
1777063005 12.78° C 97% 1003.4 hPa 4.32 mm - 98 W/m² -
1777062702 12.78° C 96% 1003.6 hPa 4.32 mm - 75 W/m² -
1777062399 12.22° C 96% 1003.8 hPa 6.6 mm - 58 W/m² -
1777062097 12.78° C 95% 1004.4 hPa 6.6 mm - 42 W/m² -
1777061793 12.78° C 94% 1004.5 hPa 6.1 mm - 36 W/m² -
1777061490 12.78° C 94% 1004.6 hPa 6.1 mm - 30 W/m² -
1777061187 13.33° C 93% 1004.8 hPa 6.1 mm - 14 W/m² -
1777060886 13.89° C 93% 1004.6 hPa 3.05 mm - 16 W/m² -
1777060581 13.33° C 93% 1004.5 hPa 0 mm - 18 W/m² -
1777060278 13.89° C 93% 1004.4 hPa 0 mm - 28 W/m² -
1777059973 13.33° C 93% 1004.2 hPa 0 mm - 31 W/m² -
1777059669 13.89° C 93% 1004.7 hPa 0 mm - 25 W/m² -

* Rain latest hour (hover to see other rain measurements)
** Current wind speed in m/s (hover to see current wind gust speed)